UATG/GUW METAR and TAF weather

Enter ICAO airport designator
Station Type Date Time Source
UATG METAR 2019/12/14 17:00 UTC NOAA

UATG 141700Z 11008MPS CAVOK M03/M09 Q1028 R14/CLRD70 NOSIG RMK QFE773/1031


Station Type Date Time Source
UATG Decoded METAR 2019/12/14 17:00 UTC NOAA

Station name not available
Dec 14, 2019 - 12:00 PM EST / 2019.12.14 1700 UTC
Wind: from the ESE (110 degrees) at 18 MPH (16 KT):0
Visibility: greater than 7 mile(s):0
Temperature: 26 F (-3 C)
Windchill: 12 F (-11 C):1
Dew Point: 15 F (-9 C)
Relative Humidity: 63%
Pressure (altimeter): 30.36 in. Hg (1028 hPa)
ob: UATG 141700Z 11008MPS CAVOK M03/M09 Q1028 R14/CLRD70 NOSIG RMK QFE773/1031
cycle: 17

Station Type Date Time Source
UATG TAF 2019/12/14 18:00 UTC NOAA

TAF UATG 141700Z 1418/1518 12008G13MPS 9999 SCT033 TX00/1510Z TNM05/1504Z
BECMG 1420/1421 3100 BR BKN011
BECMG 1504/1506 13009G14MPS 9999 NSW

Example: see airport list